Time;durP1;ratioP1;P1;durP2;ratioP2;P2;SDS_P1;SDS_P2;PMS_P1;PMS_P2;Temp;Humidity;BMP_temperature;BMP_pressure;BME280_temperature;BME280_humidity;BME280_pressure;Samples;Min_cycle;Max_cycle;Signal;HPM_P1;HPM_P2
2022/09/05 00:02:47;;;;;;;3.60;3.30;;;27.90;37.10;;;;;;4974628;28;20442;-77
2022/09/05 00:05:34;;;;;;;4.00;3.60;;;27.90;37.00;;;;;;4984849;28;20480;-77
2022/09/05 00:08:24;;;;;;;3.77;3.23;;;27.90;36.80;;;;;;4974614;28;20483;-77
2022/09/05 00:10:59;;;;;;;2.80;2.70;;;27.80;36.90;;;;;;4974919;28;20446;-77
2022/09/05 00:13:50;;;;;;;3.30;3.10;;;27.80;37.10;;;;;;4974759;28;20836;-77
2022/09/05 00:16:45;;;;;;;3.57;3.10;;;27.80;36.70;;;;;;4974857;28;20466;-77
2022/09/05 00:19:16;;;;;;;2.77;2.63;;;27.80;37.00;;;;;;4974556;28;20425;-77
2022/09/05 00:22:13;;;;;;;3.07;2.77;;;27.80;37.10;;;;;;4974167;28;20421;-77
2022/09/05 00:25:21;;;;;;;3.33;3.03;;;27.70;37.10;;;;;;4974597;28;20454;-77
2022/09/05 00:28:07;;;;;;;2.80;2.70;;;27.70;37.40;;;;;;4974288;28;20466;-77
2022/09/05 00:31:18;;;;;;;3.53;3.23;;;27.70;37.30;;;;;;4974134;28;20461;-75
2022/09/05 00:34:15;;;;;;;3.57;3.37;;;27.80;37.00;;;;;;4974159;28;20509;-76
2022/09/05 00:36:45;;;;;;;4.03;3.70;;;27.70;36.90;;;;;;4973717;28;20853;-77
2022/09/05 00:39:16;;;;;;;3.30;3.20;;;27.60;37.10;;;;;;4981933;28;20411;-76
2022/09/05 00:41:44;;;;;;;4.17;3.40;;;27.60;36.90;;;;;;4972767;28;20418;-76
2022/09/05 00:44:12;;;;;;;3.50;3.30;;;27.60;37.10;;;;;;4972707;28;20466;-77
2022/09/05 00:46:42;;;;;;;4.00;3.67;;;27.60;37.10;;;;;;4974155;28;20472;-76
2022/09/05 00:49:19;;;;;;;3.53;3.23;;;27.60;37.10;;;;;;4974236;28;20540;-77
2022/09/05 00:51:51;;;;;;;3.50;3.30;;;27.50;37.10;;;;;;4974171;28;20456;-77
2022/09/05 00:54:47;;;;;;;6.40;4.23;;;27.50;37.30;;;;;;4981535;28;20457;-77
2022/09/05 00:57:44;;;;;;;4.07;3.77;;;27.50;37.30;;;;;;4944614;28;20456;-76
2022/09/05 01:00:16;;;;;;;3.70;3.23;;;27.40;37.20;;;;;;4993367;28;20437;-76
2022/09/05 01:03:11;;;;;;;3.80;3.50;;;27.40;37.20;;;;;;4993438;28;20440;-76
2022/09/05 01:05:49;;;;;;;3.50;3.23;;;27.30;37.60;;;;;;4963332;28;20556;-76
2022/09/05 01:08:23;;;;;;;5.40;3.40;;;27.40;37.40;;;;;;4993133;28;20445;-76
2022/09/05 01:10:53;;;;;;;3.30;3.10;;;27.40;37.50;;;;;;4973637;28;20438;-76
2022/09/05 01:13:27;;;;;;;6.10;3.00;;;27.40;37.20;;;;;;4973447;28;20537;-77
2022/09/05 01:15:59;;;;;;;3.50;3.30;;;27.40;37.50;;;;;;4973769;28;20470;-77
2022/09/05 01:18:34;;;;;;;3.43;3.13;;;27.40;37.20;;;;;;4973197;28;20478;-77
2022/09/05 01:21:30;;;;;;;3.70;3.40;;;27.40;37.20;;;;;;4973792;28;20473;-77
2022/09/05 01:24:32;;;;;;;3.30;3.10;;;27.40;37.50;;;;;;4967293;28;20473;-77
2022/09/05 01:27:33;;;;;;;4.07;3.77;;;27.50;37.40;;;;;;4964252;28;20475;-77
2022/09/05 01:30:22;;;;;;;3.40;3.20;;;27.40;37.30;;;;;;4973372;28;20427;-78
2022/09/05 01:33:01;;;;;;;5.70;3.20;;;27.50;37.40;;;;;;4973934;28;20419;-77
2022/09/05 01:35:44;;;;;;;3.97;3.67;;;27.40;37.30;;;;;;4973352;28;20535;-76
2022/09/05 01:38:34;;;;;;;3.37;2.90;;;27.30;38.10;;;;;;4972984;28;20492;-75
2022/09/05 01:41:09;;;;;;;3.27;2.97;;;27.30;37.40;;;;;;4973334;28;20532;-75
2022/09/05 01:44:07;;;;;;;3.90;3.50;;;27.30;37.50;;;;;;4979275;28;20483;-75
2022/09/05 01:46:39;;;;;;;4.40;3.57;;;27.30;37.50;;;;;;4991402;28;20468;-76
2022/09/05 01:49:13;;;;;;;3.50;3.13;;;27.40;37.60;;;;;;4992407;28;20441;-77
2022/09/05 01:52:00;;;;;;;3.30;3.10;;;27.40;37.40;;;;;;4992719;28;20423;-77
2022/09/05 01:54:33;;;;;;;3.60;3.30;;;27.30;37.40;;;;;;4992433;28;20474;-77
2022/09/05 01:57:03;;;;;;;3.13;3.00;;;27.30;37.50;;;;;;4987641;28;20577;-77
2022/09/05 01:59:41;;;;;;;3.10;3.00;;;27.30;37.60;;;;;;4989322;28;20519;-77
2022/09/05 02:02:18;;;;;;;3.83;3.07;;;27.30;37.70;;;;;;4980871;28;20437;-77
2022/09/05 02:04:58;;;;;;;6.20;3.13;;;27.30;37.60;;;;;;4973422;28;20474;-77
2022/09/05 02:07:33;;;;;;;3.33;3.13;;;27.30;37.70;;;;;;4972724;28;20537;-76
2022/09/05 02:10:30;;;;;;;3.40;3.20;;;27.30;37.60;;;;;;4973405;28;20408;-77
2022/09/05 02:13:01;;;;;;;3.43;3.10;;;27.30;37.50;;;;;;4972747;28;20449;-76
2022/09/05 02:15:39;;;;;;;3.90;3.20;;;27.30;37.60;;;;;;4972904;28;20456;-76
2022/09/05 02:18:11;;;;;;;3.50;3.30;;;27.30;37.50;;;;;;4979839;28;20470;-76
2022/09/05 02:20:44;;;;;;;3.40;3.10;;;27.20;37.50;;;;;;4972925;28;20421;-77
2022/09/05 02:23:32;;;;;;;3.50;3.20;;;27.20;37.30;;;;;;4972706;28;20429;-78
2022/09/05 02:26:12;;;;;;;3.50;3.30;;;27.10;37.50;;;;;;4973110;28;20960;-77
2022/09/05 02:28:43;;;;;;;3.30;3.10;;;27.10;37.60;;;;;;4972593;28;20471;-77
2022/09/05 02:31:16;;;;;;;4.67;3.13;;;27.10;37.80;;;;;;4972942;28;20453;-77
2022/09/05 02:33:48;;;;;;;3.27;3.07;;;27.30;37.60;;;;;;4972624;28;20455;-77
2022/09/05 02:36:22;;;;;;;3.30;2.90;;;27.20;37.60;;;;;;4980367;28;20445;-77
2022/09/05 02:38:54;;;;;;;3.43;3.03;;;27.20;37.60;;;;;;4972288;28;20523;-77
2022/09/05 02:41:45;;;;;;;4.17;3.33;;;27.20;37.70;;;;;;4972794;28;20445;-77
2022/09/05 02:44:35;;;;;;;6.10;5.60;;;27.10;37.50;;;;;;4972418;28;20449;-77
2022/09/05 02:47:27;;;;;;;8.10;6.20;;;27.10;37.70;;;;;;4972618;28;20435;-77
2022/09/05 02:50:01;;;;;;;4.27;3.97;;;27.00;38.00;;;;;;4972520;28;20496;-77
2022/09/05 02:52:49;;;;;;;7.13;4.20;;;27.10;37.80;;;;;;4979765;28;20420;-77
2022/09/05 02:55:46;;;;;;;4.33;4.00;;;27.00;37.70;;;;;;4976072;28;20465;-77
2022/09/05 02:58:46;;;;;;;4.13;3.87;;;26.90;37.80;;;;;;4971389;28;20444;-77
2022/09/05 03:01:49;;;;;;;3.73;3.43;;;26.90;38.10;;;;;;4976140;28;20421;-77
2022/09/05 03:04:25;;;;;;;3.93;3.53;;;27.00;37.90;;;;;;4976225;28;20423;-77
2022/09/05 03:07:01;;;;;;;4.13;3.70;;;26.90;37.80;;;;;;4976048;28;20405;-77
2022/09/05 03:09:36;;;;;;;3.73;3.37;;;26.80;38.20;;;;;;4983750;28;20456;-77
2022/09/05 03:12:19;;;;;;;3.60;3.30;;;26.80;38.20;;;;;;4980980;28;20462;-77
2022/09/05 03:15:24;;;;;;;3.80;3.60;;;26.80;38.10;;;;;;4983069;28;20510;-76
2022/09/05 03:18:16;;;;;;;3.80;3.50;;;26.80;38.20;;;;;;4975684;28;20427;-78
2022/09/05 03:21:12;;;;;;;6.40;5.57;;;26.80;38.20;;;;;;4975721;28;20442;-77
2022/09/05 03:24:05;;;;;;;10.20;8.53;;;26.90;38.30;;;;;;4975270;28;20551;-77
2022/09/05 03:26:57;;;;;;;7.37;5.17;;;26.80;38.00;;;;;;4983067;28;20488;-77
2022/09/05 03:29:48;;;;;;;5.00;4.50;;;26.80;38.20;;;;;;4992568;28;20500;-77
2022/09/05 03:32:44;;;;;;;4.57;4.27;;;26.70;38.30;;;;;;4994879;28;20481;-77
2022/09/05 03:36:07;;;;;;;4.90;4.50;;;26.80;38.20;;;;;;4994927;28;20448;-77
2022/09/05 03:39:14;;;;;;;4.53;4.23;;;26.80;38.20;;;;;;4993024;28;20444;-77
2022/09/05 03:42:15;;;;;;;4.70;4.30;;;26.80;38.20;;;;;;4994783;28;20447;-78
2022/09/05 03:44:53;;;;;;;4.13;3.83;;;26.80;38.20;;;;;;4985097;28;20435;-77
2022/09/05 03:47:37;;;;;;;6.23;4.33;;;26.70;38.30;;;;;;4994961;28;20406;-77
2022/09/05 03:50:22;;;;;;;4.40;4.00;;;26.70;38.40;;;;;;4994444;28;20956;-77
2022/09/05 03:53:19;;;;;;;4.03;3.73;;;26.70;38.40;;;;;;4994671;28;20408;-77
2022/09/05 03:56:28;;;;;;;4.10;3.80;;;26.60;38.60;;;;;;4994382;28;20468;-77
2022/09/05 03:59:49;;;;;;;4.57;3.67;;;26.50;38.50;;;;;;4986587;28;20607;-76
2022/09/05 04:02:19;;;;;;;3.97;3.60;;;26.50;38.60;;;;;;4974897;28;20515;-77
2022/09/05 04:05:08;;;;;;;4.57;4.13;;;26.50;38.70;;;;;;4974611;28;20433;-77
2022/09/05 04:08:00;;;;;;;4.07;3.80;;;26.50;38.60;;;;;;4974871;28;20420;-77
2022/09/05 04:10:52;;;;;;;4.93;4.07;;;26.50;38.60;;;;;;4974935;28;20434;-77
2022/09/05 04:13:24;;;;;;;4.10;3.70;;;26.50;38.90;;;;;;4969953;28;20978;-77
2022/09/05 04:16:01;;;;;;;4.70;4.20;;;26.50;39.00;;;;;;4978463;28;20462;-77
2022/09/05 04:18:33;;;;;;;4.10;3.70;;;26.50;38.90;;;;;;4994027;28;20479;-77
2022/09/05 04:21:03;;;;;;;4.30;3.60;;;26.50;38.60;;;;;;4994202;28;20453;-77
2022/09/05 04:23:34;;;;;;;3.87;3.53;;;26.50;38.90;;;;;;4993932;28;20428;-77
2022/09/05 04:26:09;;;;;;;3.80;3.33;;;26.50;38.60;;;;;;4994204;28;20457;-77
2022/09/05 04:28:54;;;;;;;3.93;3.63;;;26.60;38.90;;;;;;4994043;28;20460;-77
2022/09/05 04:31:28;;;;;;;4.00;3.70;;;26.50;38.70;;;;;;4993810;28;20453;-77
2022/09/05 04:34:02;;;;;;;4.53;4.13;;;26.50;38.90;;;;;;4984012;28;20462;-77
2022/09/05 04:36:31;;;;;;;4.77;4.37;;;26.50;38.70;;;;;;4992094;28;20542;-77
2022/09/05 04:39:07;;;;;;;4.83;4.33;;;26.50;38.70;;;;;;4993480;28;20475;-77
2022/09/05 04:41:38;;;;;;;5.40;4.90;;;26.60;38.80;;;;;;4993420;28;20425;-76
2022/09/05 04:44:09;;;;;;;5.90;5.27;;;26.50;38.70;;;;;;4993788;28;20415;-78
2022/09/05 04:46:39;;;;;;;9.23;4.80;;;26.50;38.70;;;;;;4993739;28;20540;-77
2022/09/05 04:49:16;;;;;;;5.03;4.63;;;26.50;38.80;;;;;;4990138;28;20768;-77
2022/09/05 04:52:10;;;;;;;5.60;5.10;;;26.50;38.80;;;;;;4981424;28;20424;-78
2022/09/05 04:54:42;;;;;;;6.30;5.70;;;26.50;38.90;;;;;;4974108;28;20452;-77
2022/09/05 04:57:17;;;;;;;5.50;5.10;;;26.40;38.90;;;;;;4974205;28;20504;-77
2022/09/05 04:59:50;;;;;;;6.03;5.53;;;26.40;38.70;;;;;;4974012;28;20473;-77
2022/09/05 05:02:38;;;;;;;5.60;5.20;;;26.40;39.00;;;;;;4973810;28;20423;-77
2022/09/05 05:05:28;;;;;;;7.37;6.67;;;26.30;39.10;;;;;;4981651;28;20446;-77
2022/09/05 05:08:18;;;;;;;7.60;6.80;;;26.30;39.10;;;;;;4973942;28;20461;-77
2022/09/05 05:11:08;;;;;;;10.40;7.07;;;26.30;39.10;;;;;;4973607;28;20401;-77
2022/09/05 05:13:57;;;;;;;7.80;7.10;;;26.30;39.30;;;;;;4973635;28;20440;-77
2022/09/05 05:16:48;;;;;;;7.40;6.70;;;26.40;39.30;;;;;;4973404;28;20492;-77
2022/09/05 05:19:39;;;;;;;7.03;6.33;;;26.30;39.30;;;;;;4973487;28;20477;-77
2022/09/05 05:22:13;;;;;;;12.40;7.57;;;26.40;39.30;;;;;;4981042;28;20458;-77
2022/09/05 05:24:42;;;;;;;7.70;6.80;;;26.40;39.10;;;;;;4992610;28;20499;-77
2022/09/05 05:27:12;;;;;;;8.53;6.70;;;26.40;39.20;;;;;;4988360;28;20539;-77
2022/09/05 05:29:44;;;;;;;9.87;7.10;;;26.40;39.20;;;;;;4992744;28;20499;-77
2022/09/05 05:32:19;;;;;;;7.90;7.20;;;26.40;39.40;;;;;;4992836;28;20544;-77
2022/09/05 05:35:08;;;;;;;10.27;8.50;;;26.30;39.20;;;;;;4992637;28;20466;-77
2022/09/05 05:37:36;;;;;;;9.60;8.03;;;26.30;39.30;;;;;;4989151;28;20540;-77
2022/09/05 05:40:07;;;;;;;9.53;8.17;;;26.30;39.30;;;;;;4980927;28;20448;-77
2022/09/05 05:42:35;;;;;;;9.13;8.00;;;26.30;39.30;;;;;;4973324;28;20442;-77
2022/09/05 05:45:03;;;;;;;12.23;7.30;;;26.20;39.50;;;;;;4973094;28;20470;-77
2022/09/05 05:47:35;;;;;;;7.17;6.57;;;26.30;39.40;;;;;;4973246;28;20460;-76
2022/09/05 05:50:06;;;;;;;8.40;7.53;;;26.30;39.40;;;;;;4973234;28;20420;-77
2022/09/05 05:52:49;;;;;;;8.83;7.93;;;26.30;39.30;;;;;;4973134;28;20480;-77
2022/09/05 05:55:38;;;;;;;7.90;7.07;;;26.30;39.40;;;;;;4980799;28;20538;-75
2022/09/05 05:58:45;;;;;;;10.43;7.53;;;26.40;39.30;;;;;;4973074;28;20474;-76
2022/09/05 06:01:36;;;;;;;12.80;7.60;;;26.40;39.30;;;;;;4973323;28;20564;-76
2022/09/05 06:04:43;;;;;;;9.03;6.73;;;26.40;39.40;;;;;;4973089;28;20497;-76
2022/09/05 06:07:18;;;;;;;8.10;6.90;;;26.40;39.20;;;;;;4972669;28;20478;-76
2022/09/05 06:10:17;;;;;;;10.57;6.90;;;26.40;39.40;;;;;;4973199;28;20421;-77
2022/09/05 06:13:31;;;;;;;6.97;6.33;;;26.30;39.20;;;;;;4980323;28;20442;-77
2022/09/05 06:16:48;;;;;;;6.67;6.03;;;26.30;39.50;;;;;;4973018;28;20944;-78
2022/09/05 06:19:41;;;;;;;6.50;6.00;;;26.40;39.50;;;;;;4972902;28;20436;-76
2022/09/05 06:22:53;;;;;;;8.93;7.50;;;26.50;39.30;;;;;;4972921;28;20415;-75
2022/09/05 06:25:53;;;;;;;9.00;6.00;;;26.50;39.40;;;;;;4974337;28;20501;-75
2022/09/05 06:28:25;;;;;;;9.60;6.80;;;26.50;39.40;;;;;;4994553;28;20911;-75
2022/09/05 06:31:02;;;;;;;12.10;7.70;;;26.50;39.40;;;;;;4999558;28;20537;-77
2022/09/05 06:33:56;;;;;;;7.30;6.60;;;26.60;39.60;;;;;;4977188;28;20417;-77
2022/09/05 06:36:32;;;;;;;9.33;7.27;;;26.60;39.60;;;;;;4976900;28;20440;-77
2022/09/05 06:39:09;;;;;;;7.80;5.97;;;26.60;39.80;;;;;;4977888;28;20456;-77
2022/09/05 06:41:43;;;;;;;9.63;8.40;;;26.60;39.70;;;;;;4976616;28;20456;-78
2022/09/05 06:44:35;;;;;;;8.63;6.70;;;26.50;40.00;;;;;;4976624;28;20418;-77
2022/09/05 06:47:06;;;;;;;11.50;7.50;;;26.60;39.70;;;;;;4977816;28;20515;-77
2022/09/05 06:50:16;;;;;;;9.20;7.20;;;26.60;40.20;;;;;;4989761;28;20400;-77
2022/09/05 06:53:31;;;;;;;21.43;7.50;;;26.70;39.90;;;;;;4994978;28;20427;-78
2022/09/05 06:56:10;;;;;;;8.97;6.70;;;26.70;39.80;;;;;;4995380;28;20449;-77
2022/09/05 06:59:05;;;;;;;12.27;9.00;;;26.70;40.00;;;;;;4995761;28;20420;-78
2022/09/05 07:01:44;;;;;;;13.93;10.17;;;26.80;40.00;;;;;;4995387;28;20451;-79
2022/09/05 07:04:36;;;;;;;12.80;9.10;;;26.80;40.00;;;;;;4995585;28;20434;-77
2022/09/05 07:07:26;;;;;;;15.00;9.20;;;26.90;40.00;;;;;;4995468;28;20441;-79
2022/09/05 07:09:59;;;;;;;13.73;8.10;;;26.80;39.90;;;;;;4995721;28;20475;-79
2022/09/05 07:12:30;;;;;;;8.27;7.47;;;26.90;39.80;;;;;;4995698;28;20424;-79
2022/09/05 07:15:00;;;;;;;8.97;7.10;;;26.90;40.60;;;;;;4995641;28;20440;-78
2022/09/05 07:17:47;;;;;;;15.03;6.83;;;26.90;39.80;;;;;;4995376;28;20431;-79
2022/09/05 07:20:38;;;;;;;10.03;6.40;;;27.00;39.80;;;;;;4995435;28;20468;-79
2022/09/05 07:23:39;;;;;;;7.40;5.90;;;27.00;39.80;;;;;;4994911;28;20437;-78
2022/09/05 07:26:27;;;;;;;6.83;5.80;;;27.00;39.80;;;;;;4995161;28;20430;-78
2022/09/05 07:29:18;;;;;;;5.60;5.10;;;27.10;39.80;;;;;;4995018;28;20408;-78
2022/09/05 07:31:50;;;;;;;8.17;5.10;;;27.20;39.80;;;;;;4995223;28;20483;-77
2022/09/05 07:34:21;;;;;;;5.40;4.97;;;27.20;39.60;;;;;;4995101;28;20443;-78
2022/09/05 07:36:56;;;;;;;5.33;4.93;;;27.20;39.70;;;;;;4995101;28;20420;-79
2022/09/05 07:39:44;;;;;;;6.97;5.23;;;27.30;39.60;;;;;;4994988;28;20428;-79
2022/09/05 07:42:15;;;;;;;5.73;5.07;;;27.40;39.70;;;;;;4995210;28;20479;-79
2022/09/05 07:44:46;;;;;;;4.87;4.57;;;27.40;39.40;;;;;;4995400;28;20436;-79
2022/09/05 07:47:17;;;;;;;7.50;5.20;;;27.40;39.90;;;;;;4995181;28;20427;-78
2022/09/05 07:49:45;;;;;;;5.67;4.60;;;27.40;39.60;;;;;;4994613;28;20441;-77
2022/09/05 07:52:33;;;;;;;5.13;4.63;;;27.50;39.50;;;;;;4994938;28;20437;-78
2022/09/05 07:55:24;;;;;;;5.03;4.63;;;27.50;39.30;;;;;;4995223;28;20474;-78
2022/09/05 07:58:13;;;;;;;7.20;4.80;;;27.50;39.50;;;;;;4994767;28;20427;-78
2022/09/05 08:00:42;;;;;;;4.03;3.73;;;27.60;39.70;;;;;;4994389;28;20564;-79
2022/09/05 08:03:11;;;;;;;8.47;4.00;;;27.60;39.40;;;;;;4994305;28;20423;-78
2022/09/05 08:05:42;;;;;;;4.57;4.27;;;27.80;39.00;;;;;;4994397;28;20449;-78
2022/09/05 08:08:11;;;;;;;4.53;4.23;;;27.90;38.90;;;;;;4994183;28;20443;-78
2022/09/05 08:10:43;;;;;;;5.10;4.00;;;28.00;38.80;;;;;;4994569;28;20441;-78
2022/09/05 08:13:45;;;;;;;6.93;4.47;;;28.10;38.90;;;;;;4994307;28;20427;-78
2022/09/05 08:16:16;;;;;;;4.20;3.90;;;28.10;38.20;;;;;;4993981;28;20471;-80
2022/09/05 08:18:48;;;;;;;4.50;4.20;;;28.10;39.00;;;;;;4994090;28;20451;-79
2022/09/05 08:21:22;;;;;;;4.77;4.37;;;28.30;38.80;;;;;;4994159;28;20469;-78
2022/09/05 08:23:56;;;;;;;5.47;3.83;;;28.50;38.60;;;;;;4994199;28;20782;-78
2022/09/05 08:26:30;;;;;;;3.43;3.23;;;28.70;38.00;;;;;;4994043;28;20432;-78
2022/09/05 08:29:01;;;;;;;5.57;4.27;;;28.80;37.80;;;;;;4993884;28;20531;-79
2022/09/05 08:31:34;;;;;;;7.13;4.07;;;28.90;37.80;;;;;;4993757;28;20437;-78
2022/09/05 08:34:11;;;;;;;6.57;4.30;;;29.00;37.80;;;;;;4993834;28;20508;-79
2022/09/05 08:36:40;;;;;;;8.43;4.03;;;29.10;37.80;;;;;;4993797;28;20454;-79
2022/09/05 08:39:09;;;;;;;4.63;4.23;;;29.20;37.30;;;;;;4993602;28;20536;-79
2022/09/05 08:41:49;;;;;;;5.67;3.80;;;29.30;37.50;;;;;;4993954;28;20516;-79
2022/09/05 08:44:31;;;;;;;4.00;3.70;;;29.40;37.20;;;;;;4993571;28;20441;-78
2022/09/05 08:47:26;;;;;;;8.50;3.70;;;29.40;38.00;;;;;;4993826;28;20441;-79
2022/09/05 08:50:23;;;;;;;4.33;4.00;;;29.50;37.90;;;;;;4993600;28;20478;-79
2022/09/05 08:52:57;;;;;;;8.07;4.00;;;29.70;37.00;;;;;;4993090;28;20471;-78
2022/09/05 08:55:34;;;;;;;8.67;4.30;;;29.70;37.20;;;;;;4993313;28;20835;-79
2022/09/05 08:58:06;;;;;;;4.70;4.03;;;29.90;37.40;;;;;;4993787;28;20441;-78
2022/09/05 09:00:36;;;;;;;4.30;4.00;;;29.90;36.60;;;;;;4994014;28;20442;-78
2022/09/05 09:03:12;;;;;;;6.63;4.43;;;29.90;37.00;;;;;;4993666;28;20452;-79
2022/09/05 09:06:16;;;;;;;6.67;3.80;;;29.90;37.10;;;;;;4993260;28;20472;-79
2022/09/05 09:09:00;;;;;;;5.87;4.20;;;30.00;37.20;;;;;;4993275;28;20445;-78
2022/09/05 09:11:34;;;;;;;7.07;4.10;;;30.00;37.40;;;;;;4993804;28;20556;-79
2022/09/05 09:14:35;;;;;;;4.30;3.60;;;30.10;36.80;;;;;;4993490;28;20503;-79
2022/09/05 09:17:07;;;;;;;6.60;3.90;;;30.20;35.90;;;;;;4993575;28;20481;-77
2022/09/05 09:19:45;;;;;;;4.13;3.73;;;30.30;36.20;;;;;;4993216;28;20460;-79
2022/09/05 09:22:18;;;;;;;4.47;4.07;;;30.30;35.80;;;;;;4993024;28;20535;-79
2022/09/05 09:24:48;;;;;;;4.10;3.67;;;30.40;35.70;;;;;;4993042;28;20447;-78
2022/09/05 09:27:43;;;;;;;4.37;3.97;;;30.50;35.80;;;;;;4993138;28;20438;-78
2022/09/05 09:30:31;;;;;;;4.07;3.83;;;30.50;36.50;;;;;;4992965;28;20448;-79
2022/09/05 09:33:03;;;;;;;4.10;3.63;;;30.60;35.50;;;;;;4993071;28;20455;-79
2022/09/05 09:35:38;;;;;;;6.83;3.83;;;30.60;35.70;;;;;;4992791;28;20469;-79
2022/09/05 09:38:13;;;;;;;3.77;3.47;;;30.60;35.30;;;;;;4992835;28;20531;-78
2022/09/05 09:41:03;;;;;;;3.93;3.63;;;30.70;35.50;;;;;;5000453;28;20523;-79
2022/09/05 09:43:37;;;;;;;3.93;3.60;;;30.60;35.20;;;;;;4992577;28;20477;-79
2022/09/05 09:46:16;;;;;;;6.10;4.33;;;30.70;35.40;;;;;;4992654;28;20473;-79
2022/09/05 09:49:01;;;;;;;4.23;3.90;;;30.80;35.70;;;;;;4992904;28;20477;-79
2022/09/05 09:51:48;;;;;;;4.00;3.80;;;30.90;35.50;;;;;;4992624;28;20448;-79
2022/09/05 09:54:36;;;;;;;4.70;4.40;;;30.80;35.20;;;;;;4992789;28;20532;-79
2022/09/05 09:57:35;;;;;;;4.13;3.83;;;30.90;35.10;;;;;;4992532;28;20453;-79
2022/09/05 10:00:06;;;;;;;4.83;4.20;;;30.90;35.30;;;;;;4971911;28;20536;-78
2022/09/05 10:02:55;;;;;;;7.13;4.20;;;31.00;35.20;;;;;;4991879;28;20556;-78
2022/09/05 10:06:03;;;;;;;4.20;3.80;;;31.00;35.00;;;;;;4992303;28;20457;-79
2022/09/05 10:09:04;;;;;;;4.27;4.07;;;31.00;35.20;;;;;;4992100;28;20429;-79
2022/09/05 10:12:15;;;;;;;4.47;3.60;;;31.10;35.10;;;;;;4991989;28;20440;-80
2022/09/05 10:14:59;;;;;;;5.33;3.77;;;31.00;34.90;;;;;;4992482;28;20474;-79
2022/09/05 10:18:25;;;;;;;4.60;4.20;;;31.10;35.00;;;;;;4992216;28;20441;-78
2022/09/05 10:21:01;;;;;;;3.63;3.53;;;31.20;35.30;;;;;;4992516;28;20552;-79
2022/09/05 10:24:25;;;;;;;4.37;4.07;;;31.20;35.00;;;;;;4992128;28;20504;-79
2022/09/05 10:27:04;;;;;;;4.23;3.67;;;31.30;35.00;;;;;;4992350;28;20437;-79
2022/09/05 10:29:45;;;;;;;4.30;4.00;;;31.40;34.80;;;;;;4992425;28;20515;-79
2022/09/05 10:32:16;;;;;;;4.60;4.20;;;31.50;34.60;;;;;;4992239;28;20513;-79
2022/09/05 10:35:10;;;;;;;3.77;3.57;;;31.50;34.70;;;;;;4992249;28;20456;-78
2022/09/05 10:37:51;;;;;;;4.37;4.03;;;31.40;34.80;;;;;;4992044;28;20836;-78
2022/09/05 10:40:21;;;;;;;4.77;4.10;;;31.40;35.10;;;;;;4992432;28;20441;-78
2022/09/05 10:42:50;;;;;;;3.87;3.63;;;31.50;35.10;;;;;;4992165;28;20483;-77
2022/09/05 10:45:30;;;;;;;3.60;3.40;;;31.50;34.90;;;;;;4992341;28;20515;-78
2022/09/05 10:48:09;;;;;;;3.87;3.67;;;31.60;35.00;;;;;;4992030;28;20488;-78
2022/09/05 10:50:42;;;;;;;4.30;3.47;;;31.60;34.90;;;;;;4992408;28;20441;-79
2022/09/05 10:53:21;;;;;;;9.80;3.80;;;31.60;34.60;;;;;;4992255;28;21048;-78
2022/09/05 10:55:59;;;;;;;3.93;3.70;;;31.70;35.10;;;;;;4992118;28;20499;-78
2022/09/05 10:58:43;;;;;;;3.83;3.53;;;31.70;34.30;;;;;;4992533;28;20455;-79
2022/09/05 11:01:38;;;;;;;4.10;3.87;;;31.70;34.40;;;;;;4992300;28;20433;-79
2022/09/05 11:04:34;;;;;;;4.10;3.70;;;31.80;34.50;;;;;;4991984;28;20429;-78
2022/09/05 11:07:18;;;;;;;3.93;3.73;;;31.80;34.50;;;;;;4991743;28;20445;-77
2022/09/05 11:10:01;;;;;;;4.03;3.80;;;31.80;34.60;;;;;;4992305;28;20449;-77
2022/09/05 11:12:37;;;;;;;4.50;3.47;;;31.90;34.30;;;;;;4992029;28;20437;-78
2022/09/05 11:15:06;;;;;;;3.80;3.60;;;32.10;34.30;;;;;;4993140;28;20460;-79
2022/09/05 11:17:38;;;;;;;4.13;3.37;;;32.10;34.10;;;;;;4995183;28;20447;-80
2022/09/05 11:20:33;;;;;;;4.00;3.70;;;32.10;34.30;;;;;;4995652;28;20451;-78
2022/09/05 11:23:04;;;;;;;4.37;4.07;;;32.10;34.40;;;;;;4995009;28;20473;-79
2022/09/05 11:25:35;;;;;;;3.60;3.30;;;32.10;34.30;;;;;;4995741;28;20473;-78
2022/09/05 11:28:13;;;;;;;3.67;3.47;;;32.10;34.30;;;;;;4995454;28;20448;-79
2022/09/05 11:30:42;;;;;;;3.50;3.23;;;32.10;34.20;;;;;;4995113;28;20487;-78
2022/09/05 11:33:16;;;;;;;3.80;3.50;;;32.10;34.40;;;;;;4995099;28;20441;-77
2022/09/05 11:36:05;;;;;;;4.07;3.77;;;32.20;34.50;;;;;;4994878;28;20465;-77
2022/09/05 11:39:38;;;;;;;3.40;3.20;;;32.40;34.60;;;;;;4994908;28;20445;-78
2022/09/05 11:42:36;;;;;;;3.70;3.40;;;32.50;33.90;;;;;;4969942;28;20433;-77
2022/09/05 11:45:33;;;;;;;3.80;3.60;;;32.50;33.90;;;;;;4994968;28;20551;-78
2022/09/05 11:48:22;;;;;;;3.37;3.17;;;32.40;34.20;;;;;;4991083;28;20956;-78
2022/09/05 11:51:31;;;;;;;3.33;3.00;;;32.40;34.00;;;;;;4994871;28;20480;-78
2022/09/05 11:54:40;;;;;;;4.13;3.50;;;32.40;34.40;;;;;;4915559;29;20440;-78
2022/09/05 11:57:14;;;;;;;3.60;3.30;;;32.40;34.60;;;;;;4994651;28;20451;-78
2022/09/05 12:00:13;;;;;;;3.60;3.30;;;32.50;34.10;;;;;;4994802;28;20449;-77
2022/09/05 12:03:24;;;;;;;3.20;3.00;;;32.40;34.20;;;;;;4994471;28;20481;-77
2022/09/05 12:06:36;;;;;;;3.27;3.17;;;32.50;34.30;;;;;;4994642;28;20460;-77
2022/09/05 12:09:18;;;;;;;6.03;3.57;;;32.40;34.30;;;;;;4974292;28;20445;-76
2022/09/05 12:11:57;;;;;;;5.80;3.30;;;32.40;34.70;;;;;;4994575;28;20433;-77
2022/09/05 12:14:34;;;;;;;3.43;3.13;;;32.40;34.50;;;;;;4994309;28;20965;-77
2022/09/05 12:17:07;;;;;;;3.23;3.03;;;32.30;34.40;;;;;;4994384;28;21008;-77
2022/09/05 12:19:46;;;;;;;3.33;3.07;;;32.40;34.50;;;;;;4994228;28;20495;-77
2022/09/05 12:22:25;;;;;;;3.20;2.90;;;32.40;34.40;;;;;;4994340;28;20518;-77
2022/09/05 12:25:10;;;;;;;3.63;3.20;;;32.50;34.40;;;;;;4994011;28;20476;-78
2022/09/05 12:28:01;;;;;;;2.90;2.70;;;32.50;34.40;;;;;;4993306;28;20433;-78
2022/09/05 12:30:49;;;;;;;3.17;2.93;;;32.70;34.60;;;;;;4993556;28;20449;-78
2022/09/05 12:33:38;;;;;;;3.47;2.77;;;32.70;34.00;;;;;;4994169;28;20429;-78
2022/09/05 12:36:34;;;;;;;3.17;2.90;;;32.70;34.10;;;;;;4994719;28;20453;-78
2022/09/05 12:39:26;;;;;;;4.73;2.80;;;32.80;34.10;;;;;;4995131;28;20440;-78
2022/09/05 12:42:17;;;;;;;2.70;2.60;;;32.90;34.10;;;;;;4995416;28;20448;-78
2022/09/05 12:45:08;;;;;;;3.10;2.90;;;32.90;34.00;;;;;;4994894;28;20470;-78
2022/09/05 12:47:58;;;;;;;2.77;2.57;;;32.90;34.20;;;;;;4994710;28;20445;-78
2022/09/05 12:50:33;;;;;;;2.87;2.67;;;32.90;34.30;;;;;;4994163;28;20540;-78
2022/09/05 12:53:07;;;;;;;2.77;2.67;;;32.90;33.80;;;;;;4994885;28;21013;-78
2022/09/05 12:55:37;;;;;;;4.67;3.03;;;32.90;33.90;;;;;;4999570;28;20520;-77
2022/09/05 12:58:13;;;;;;;3.00;2.77;;;32.90;34.00;;;;;;4999135;28;20474;-78
2022/09/05 13:01:21;;;;;;;4.00;2.90;;;32.80;34.30;;;;;;4995999;28;20430;-78
2022/09/05 13:04:16;;;;;;;3.00;2.90;;;32.90;34.90;;;;;;4995301;28;20478;-79
2022/09/05 13:06:54;;;;;;;2.77;2.63;;;33.10;33.90;;;;;;4995479;28;20472;-79
2022/09/05 13:09:24;;;;;;;2.27;2.17;;;32.90;33.60;;;;;;4996223;28;20528;-79
2022/09/05 13:12:14;;;;;;;3.83;2.43;;;32.90;34.00;;;;;;4995255;28;20448;-79
2022/09/05 13:15:05;;;;;;;3.60;2.70;;;32.90;34.30;;;;;;4995659;28;20454;-78
2022/09/05 13:17:53;;;;;;;4.20;2.87;;;32.90;33.90;;;;;;4989271;28;20453;-77
2022/09/05 13:20:32;;;;;;;5.60;3.03;;;33.00;34.70;;;;;;4990318;28;20541;-78
2022/09/05 13:23:06;;;;;;;3.13;2.63;;;33.00;34.30;;;;;;4986135;28;20445;-79
2022/09/05 13:25:35;;;;;;;2.97;2.70;;;33.00;34.70;;;;;;4983134;28;20556;-80
2022/09/05 13:28:05;;;;;;;2.97;2.73;;;33.10;34.70;;;;;;4986542;28;20446;-79
2022/09/05 13:30:35;;;;;;;2.93;2.73;;;33.20;34.80;;;;;;4983267;28;20455;-80
2022/09/05 13:33:25;;;;;;;5.97;3.30;;;33.30;34.60;;;;;;4983999;28;20449;-79
2022/09/05 13:36:17;;;;;;;7.90;2.80;;;33.30;34.40;;;;;;4983538;28;20442;-78
2022/09/05 13:39:08;;;;;;;2.90;2.80;;;33.30;34.30;;;;;;4984485;28;20437;-79
2022/09/05 13:41:42;;;;;;;8.03;2.83;;;33.30;34.50;;;;;;4987225;28;20442;-78
2022/09/05 13:44:12;;;;;;;6.73;3.67;;;33.30;34.30;;;;;;4984092;28;20465;-78
2022/09/05 13:46:54;;;;;;;3.40;3.10;;;33.40;34.20;;;;;;4984387;28;20465;-78
2022/09/05 13:49:27;;;;;;;4.43;2.90;;;33.30;34.10;;;;;;4984662;28;20447;-78
2022/09/05 13:52:06;;;;;;;6.70;2.93;;;32.80;34.80;;;;;;4993009;28;20238;-78
2022/09/05 13:54:41;;;;;;;3.30;3.00;;;32.90;35.10;;;;;;4975990;28;20585;-78
2022/09/05 13:57:25;;;;;;;3.07;2.97;;;33.00;34.80;;;;;;4974295;28;20541;-78
2022/09/05 14:00:22;;;;;;;2.90;2.40;;;33.10;34.60;;;;;;4974517;28;20449;-79
2022/09/05 14:03:18;;;;;;;3.47;2.97;;;33.20;34.90;;;;;;4977625;28;20485;-79
2022/09/05 14:06:16;;;;;;;2.73;2.53;;;33.20;34.40;;;;;;4978881;28;20454;-79
2022/09/05 14:09:09;;;;;;;3.40;2.60;;;33.30;34.30;;;;;;4976318;28;20436;-79
2022/09/05 14:12:02;;;;;;;3.47;3.00;;;33.20;34.20;;;;;;4973864;28;20438;-77